createdAt,value
2023-07-31T00:02:21.925Z,6.03
2023-07-31T00:04:54.004Z,13.15
2023-07-31T00:07:22.677Z,10.10
2023-07-31T00:09:51.532Z,9.32
2023-07-31T00:12:25.584Z,8.40
2023-07-31T00:14:56.783Z,9.13
2023-07-31T00:17:27.840Z,10.60
2023-07-31T00:19:58.456Z,10.05
2023-07-31T00:22:27.446Z,12.43
2023-07-31T00:24:58.799Z,10.32
2023-07-31T00:27:27.660Z,6.72
2023-07-31T00:29:56.134Z,10.18
2023-07-31T00:32:24.652Z,14.15
2023-07-31T00:34:55.690Z,9.57
2023-07-31T00:37:25.459Z,13.82
2023-07-31T00:39:54.052Z,6.63
2023-07-31T00:42:24.364Z,9.23
2023-07-31T00:44:56.463Z,9.93
2023-07-31T00:47:28.441Z,12.70
2023-07-31T00:49:56.822Z,5.63
2023-07-31T00:52:25.069Z,8.25
2023-07-31T00:54:55.713Z,9.32
2023-07-31T00:57:24.448Z,11.05
2023-07-31T00:59:56.246Z,7.97
2023-07-31T01:02:27.310Z,5.93
2023-07-31T01:04:56.144Z,7.43
2023-07-31T01:07:27.594Z,10.10
2023-07-31T01:09:59.556Z,6.10
2023-07-31T01:12:36.707Z,6.13
2023-07-31T01:15:11.961Z,7.00
2023-07-31T01:17:49.161Z,7.13
2023-07-31T01:20:23.889Z,5.53
2023-07-31T01:23:04.596Z,8.13
2023-07-31T01:25:47.591Z,9.80
2023-07-31T01:28:17.132Z,12.45
2023-07-31T01:30:47.138Z,4.20
2023-07-31T01:33:16.261Z,10.20
2023-07-31T01:35:46.269Z,8.75
2023-07-31T01:38:14.657Z,5.70
2023-07-31T01:40:43.911Z,6.07
2023-07-31T01:43:12.933Z,6.80
2023-07-31T01:45:44.236Z,6.00
2023-07-31T01:48:15.766Z,8.43
2023-07-31T01:50:45.015Z,10.65
2023-07-31T01:53:15.826Z,11.38
2023-07-31T01:55:47.510Z,10.48
2023-07-31T01:58:16.434Z,7.32
2023-07-31T02:00:44.927Z,8.20
2023-07-31T02:03:25.189Z,11.07
2023-07-31T02:05:56.211Z,4.88
2023-07-31T02:08:25.561Z,9.32
2023-07-31T02:10:54.691Z,6.55
2023-07-31T02:13:31.638Z,9.57
2023-07-31T02:16:01.128Z,7.00
2023-07-31T02:18:37.308Z,9.25
2023-07-31T02:21:08.190Z,6.68
2023-07-31T02:23:38.843Z,8.40
2023-07-31T02:26:10.671Z,8.93
2023-07-31T02:28:39.211Z,8.20
2023-07-31T02:31:10.260Z,6.22
2023-07-31T02:33:38.885Z,8.45
2023-07-31T02:36:07.583Z,12.88
2023-07-31T02:38:43.148Z,13.05
2023-07-31T02:41:12.533Z,6.05
2023-07-31T02:43:42.538Z,8.75
2023-07-31T02:46:11.713Z,9.10
2023-07-31T02:48:40.148Z,14.45
2023-07-31T02:51:13.839Z,10.18
2023-07-31T02:53:42.279Z,5.82
2023-07-31T02:56:11.743Z,5.70
2023-07-31T02:58:40.178Z,10.00
2023-07-31T03:01:12.655Z,7.00
2023-07-31T03:03:46.364Z,9.38
2023-07-31T03:06:14.945Z,4.88
2023-07-31T03:08:46.272Z,6.50
2023-07-31T03:11:17.966Z,6.57
2023-07-31T03:13:47.239Z,8.07
2023-07-31T03:16:16.896Z,8.13
2023-07-31T03:18:45.864Z,4.30
2023-07-31T03:21:14.828Z,10.65
2023-07-31T03:23:44.602Z,7.07
2023-07-31T03:26:15.653Z,9.95
2023-07-31T03:28:47.767Z,8.57
2023-07-31T03:31:16.601Z,13.15
2023-07-31T03:33:44.897Z,8.20
2023-07-31T03:36:13.646Z,6.03
2023-07-31T03:38:43.235Z,8.15
2023-07-31T03:41:13.089Z,10.93
2023-07-31T03:43:41.485Z,9.90
2023-07-31T03:46:10.754Z,6.22
2023-07-31T03:48:39.857Z,6.65
2023-07-31T03:51:09.242Z,7.72
2023-07-31T03:53:40.169Z,11.25
2023-07-31T03:56:08.615Z,7.50
2023-07-31T03:58:38.920Z,4.00
2023-07-31T04:01:07.249Z,8.00
2023-07-31T04:03:35.978Z,14.38
2023-07-31T04:06:05.480Z,4.40
2023-07-31T04:08:34.712Z,7.47
2023-07-31T04:11:02.966Z,8.43
2023-07-31T04:13:32.273Z,5.10
2023-07-31T04:16:02.612Z,9.20
2023-07-31T04:18:33.429Z,6.72
2023-07-31T04:21:02.365Z,8.20
2023-07-31T04:23:35.097Z,10.18
2023-07-31T04:26:03.465Z,9.45
2023-07-31T04:28:32.893Z,5.20
2023-07-31T04:31:02.928Z,5.10
2023-07-31T04:33:39.859Z,8.55
2023-07-31T04:36:08.398Z,4.55
2023-07-31T04:38:40.001Z,9.32
2023-07-31T04:41:11.162Z,6.95
2023-07-31T04:43:40.933Z,6.78
2023-07-31T04:46:09.393Z,3.90
2023-07-31T04:48:38.653Z,11.38
2023-07-31T04:51:10.827Z,10.57
2023-07-31T04:53:42.137Z,10.38
2023-07-31T04:56:13.902Z,7.68
2023-07-31T04:58:44.819Z,7.40
2023-07-31T05:01:13.831Z,9.45
2023-07-31T05:03:47.837Z,5.43
2023-07-31T05:06:21.585Z,8.55
2023-07-31T05:08:50.590Z,11.85
2023-07-31T05:11:20.382Z,9.13
2023-07-31T05:13:49.601Z,8.40
2023-07-31T05:16:20.468Z,5.90
2023-07-31T05:18:51.910Z,8.07
2023-07-31T05:21:20.629Z,7.03
2023-07-31T05:23:49.896Z,7.00
2023-07-31T05:26:22.069Z,7.22
2023-07-31T05:28:50.763Z,6.80
2023-07-31T05:31:19.541Z,4.55
2023-07-31T05:33:48.461Z,4.13
2023-07-31T05:36:16.806Z,11.88
2023-07-31T05:38:49.986Z,7.20
2023-07-31T05:41:17.722Z,9.73
2023-07-31T05:43:45.407Z,7.72
2023-07-31T05:46:18.872Z,5.97
2023-07-31T05:48:52.418Z,8.50
2023-07-31T05:51:21.549Z,6.20
2023-07-31T05:53:50.103Z,9.77
2023-07-31T05:56:21.512Z,11.98
2023-07-31T05:58:51.444Z,7.15
2023-07-31T06:01:22.329Z,12.02
2023-07-31T06:03:56.643Z,9.93
2023-07-31T06:06:25.046Z,7.45
2023-07-31T06:08:56.789Z,6.00
2023-07-31T06:11:25.629Z,6.00
2023-07-31T06:13:54.030Z,6.22
2023-07-31T06:16:23.642Z,6.40
2023-07-31T06:18:53.118Z,10.70
2023-07-31T06:21:21.670Z,4.05
2023-07-31T06:23:50.205Z,6.97
2023-07-31T06:26:21.349Z,5.82
2023-07-31T06:28:50.496Z,9.32
2023-07-31T06:31:21.683Z,6.68
2023-07-31T06:33:50.355Z,8.13
2023-07-31T06:36:22.505Z,6.85
2023-07-31T06:38:50.859Z,5.32
2023-07-31T06:41:19.591Z,7.70
2023-07-31T06:43:50.684Z,8.70
2023-07-31T06:46:20.165Z,12.38
2023-07-31T06:48:51.701Z,5.60
2023-07-31T06:51:20.644Z,3.70
2023-07-31T06:53:52.166Z,6.03
2023-07-31T06:56:23.356Z,6.03
2023-07-31T06:58:52.917Z,4.45
2023-07-31T07:01:21.447Z,9.18
2023-07-31T07:03:51.860Z,6.60
2023-07-31T07:06:21.371Z,6.47
2023-07-31T07:08:50.476Z,7.63
2023-07-31T07:11:19.562Z,8.75
2023-07-31T07:13:48.702Z,6.45
2023-07-31T07:16:17.535Z,5.25
2023-07-31T07:19:02.246Z,6.93
2023-07-31T07:21:33.969Z,6.28
2023-07-31T07:24:02.359Z,4.65
2023-07-31T07:26:35.950Z,6.85
2023-07-31T07:29:09.000Z,11.65
2023-07-31T07:31:38.254Z,7.57
2023-07-31T07:34:06.973Z,6.65
2023-07-31T07:36:38.854Z,4.18
2023-07-31T07:39:10.452Z,10.27
2023-07-31T07:41:41.514Z,3.65
2023-07-31T07:44:10.636Z,7.63
2023-07-31T07:46:41.430Z,5.10
2023-07-31T07:51:44.676Z,6.57
2023-07-31T07:54:13.316Z,7.43
2023-07-31T07:56:44.815Z,4.78
2023-07-31T07:59:17.839Z,5.90
2023-07-31T08:01:47.687Z,3.72
2023-07-31T08:04:18.922Z,7.25
2023-07-31T08:06:47.744Z,6.53
2023-07-31T08:09:16.162Z,6.97
2023-07-31T08:11:45.536Z,4.15
2023-07-31T08:14:14.365Z,5.45
2023-07-31T08:16:45.341Z,4.53
2023-07-31T08:19:16.864Z,5.65
2023-07-31T08:21:45.994Z,5.65
2023-07-31T08:24:14.553Z,3.95
2023-07-31T08:26:43.079Z,6.47
2023-07-31T08:29:12.258Z,3.33
2023-07-31T08:31:40.702Z,7.03
2023-07-31T08:34:10.203Z,7.60
2023-07-31T08:36:40.036Z,5.45
2023-07-31T08:39:08.947Z,6.93
2023-07-31T08:41:40.508Z,3.05
2023-07-31T08:44:10.045Z,6.03
2023-07-31T08:46:39.410Z,3.42
2023-07-31T08:49:09.529Z,5.20
2023-07-31T08:51:38.804Z,2.85
2023-07-31T08:54:07.645Z,5.82
2023-07-31T08:56:36.552Z,3.70
2023-07-31T08:59:06.548Z,2.58
2023-07-31T09:01:42.044Z,7.25
2023-07-31T09:04:11.782Z,2.72
2023-07-31T09:06:41.389Z,4.95
2023-07-31T09:09:10.653Z,6.97
2023-07-31T09:11:41.868Z,4.68
2023-07-31T09:14:13.084Z,3.95
2023-07-31T09:16:54.110Z,4.47
2023-07-31T09:19:35.359Z,3.38
2023-07-31T09:22:03.938Z,3.65
2023-07-31T09:24:35.779Z,7.25
2023-07-31T09:27:04.419Z,5.25
2023-07-31T09:29:35.081Z,4.47
2023-07-31T09:32:06.352Z,4.43
2023-07-31T09:34:40.476Z,6.93
2023-07-31T09:37:08.934Z,4.45
2023-07-31T09:39:47.905Z,4.07
2023-07-31T09:42:26.673Z,4.10
2023-07-31T09:44:57.625Z,4.28
2023-07-31T09:47:27.787Z,6.07
2023-07-31T09:49:56.215Z,3.28
2023-07-31T09:52:28.098Z,3.70
2023-07-31T09:54:56.516Z,4.85
2023-07-31T09:57:26.712Z,3.67
2023-07-31T09:59:56.405Z,3.88
2023-07-31T10:02:29.188Z,6.80
2023-07-31T10:04:59.950Z,4.55
2023-07-31T10:07:32.478Z,4.65
2023-07-31T10:10:04.168Z,6.32
2023-07-31T10:12:36.798Z,4.35
2023-07-31T10:15:05.652Z,6.80
2023-07-31T10:17:41.255Z,7.57
2023-07-31T10:20:11.892Z,5.13
2023-07-31T10:22:41.875Z,8.15
2023-07-31T10:25:12.074Z,9.23
2023-07-31T10:27:41.550Z,4.78
2023-07-31T10:30:19.893Z,6.68
2023-07-31T10:33:05.193Z,5.35
2023-07-31T10:35:35.287Z,4.70
2023-07-31T10:38:13.658Z,6.63
2023-07-31T10:40:45.895Z,3.83
2023-07-31T10:43:26.189Z,3.08
2023-07-31T10:45:55.389Z,15.82
2023-07-31T10:48:25.201Z,5.63
2023-07-31T10:50:58.241Z,33.10
2023-07-31T10:53:29.856Z,0.95
2023-07-31T10:56:02.071Z,7.22
2023-07-31T10:58:33.570Z,5.05
2023-07-31T11:01:02.639Z,9.73
2023-07-31T11:03:43.022Z,88.00
2023-07-31T11:06:18.366Z,360.17
2023-07-31T11:08:48.699Z,4.80
2023-07-31T11:11:18.319Z,6.22
2023-07-31T11:13:54.114Z,7.22
2023-07-31T11:16:23.982Z,10.57
2023-07-31T11:18:54.157Z,10.95
2023-07-31T11:21:24.198Z,13.00
2023-07-31T11:24:01.880Z,6.25
2023-07-31T11:26:34.571Z,8.98
2023-07-31T11:29:02.875Z,5.30
2023-07-31T11:31:32.203Z,5.75
2023-07-31T11:34:10.026Z,4.47
2023-07-31T11:36:42.301Z,4.03
2023-07-31T11:39:13.128Z,5.32
2023-07-31T11:41:43.231Z,5.20
2023-07-31T11:44:27.136Z,3.53
2023-07-31T11:46:58.559Z,133.57
2023-07-31T11:49:28.387Z,45.45
2023-07-31T11:51:56.855Z,2.50
2023-07-31T11:54:25.983Z,2.58
2023-07-31T11:56:58.763Z,2.83
2023-07-31T11:59:27.292Z,2.47
2023-07-31T12:01:56.080Z,4.32
2023-07-31T12:04:25.815Z,4.55
2023-07-31T12:06:59.097Z,3.63
2023-07-31T12:09:28.524Z,2.40
2023-07-31T12:11:58.442Z,2.55
2023-07-31T12:14:27.657Z,2.20
2023-07-31T12:17:00.993Z,73.15
2023-07-31T12:19:30.957Z,32.13
2023-07-31T12:22:02.018Z,2.13
2023-07-31T12:24:36.241Z,1999.90
2023-07-31T12:27:11.151Z,1999.90
2023-07-31T12:29:42.199Z,1999.90
2023-07-31T12:32:23.615Z,1999.90
2023-07-31T12:34:54.442Z,1999.90
2023-07-31T12:37:25.481Z,1999.90
2023-07-31T12:39:54.179Z,1999.90
2023-07-31T12:42:23.505Z,1999.90
2023-07-31T12:44:55.288Z,1999.90
2023-07-31T12:47:24.143Z,1999.90
2023-07-31T12:49:53.415Z,1999.90
2023-07-31T12:52:24.510Z,1999.90
2023-07-31T12:54:52.918Z,1999.90
2023-07-31T12:57:21.506Z,1999.90
2023-07-31T12:59:50.198Z,1999.90
2023-07-31T13:02:21.215Z,1999.90
2023-07-31T13:04:50.988Z,1999.90
2023-07-31T13:07:20.513Z,1999.90
2023-07-31T13:09:52.043Z,1999.90
2023-07-31T13:12:20.241Z,1999.90
2023-07-31T13:14:54.114Z,1999.90
2023-07-31T13:17:22.770Z,1999.90
2023-07-31T13:19:51.458Z,1999.90
2023-07-31T13:22:23.515Z,1999.90
2023-07-31T13:24:52.777Z,1999.90
2023-07-31T13:27:23.668Z,1999.90
2023-07-31T13:29:56.035Z,1999.90
2023-07-31T13:32:25.175Z,1999.90
2023-07-31T13:34:53.816Z,1999.90
2023-07-31T13:37:22.159Z,1999.90
2023-07-31T13:39:50.556Z,1999.90
2023-07-31T13:42:19.262Z,1999.90
2023-07-31T13:44:48.449Z,1999.90
2023-07-31T13:47:17.015Z,1999.90
2023-07-31T13:49:46.516Z,1999.90
2023-07-31T13:52:14.949Z,1999.90
2023-07-31T13:54:45.777Z,1999.90
2023-07-31T13:57:14.528Z,1999.90
2023-07-31T13:59:42.988Z,1999.90
2023-07-31T14:02:11.389Z,1999.90
2023-07-31T14:04:43.001Z,1999.90
2023-07-31T14:07:16.416Z,1999.90
2023-07-31T14:09:47.026Z,1999.90
2023-07-31T14:12:24.945Z,1999.90
2023-07-31T14:15:04.048Z,1999.90
2023-07-31T14:17:35.496Z,412.30
2023-07-31T14:20:08.409Z,104.75
2023-07-31T14:22:45.019Z,1999.90
2023-07-31T14:25:16.035Z,1999.90
2023-07-31T14:27:46.363Z,1999.90
2023-07-31T14:30:15.465Z,1999.90
2023-07-31T14:33:03.634Z,1999.90
2023-07-31T14:35:36.806Z,1999.90
2023-07-31T14:38:05.359Z,1999.90
2023-07-31T14:40:37.637Z,1999.90
2023-07-31T14:43:08.152Z,1999.90
2023-07-31T14:45:36.755Z,1999.90
2023-07-31T14:48:05.207Z,1999.90
2023-07-31T14:50:35.243Z,1999.90
2023-07-31T14:53:03.777Z,1999.90
2023-07-31T14:55:33.132Z,843.85
2023-07-31T14:58:04.118Z,3.15
2023-07-31T15:00:36.933Z,4.75
2023-07-31T15:03:22.224Z,5.85
2023-07-31T15:05:50.647Z,443.25
2023-07-31T15:08:20.454Z,675.03
2023-07-31T15:10:49.089Z,1999.90
2023-07-31T15:13:17.975Z,1999.90
2023-07-31T15:15:49.368Z,1999.90
2023-07-31T15:18:19.592Z,3.53
2023-07-31T15:23:27.330Z,1195.00
2023-07-31T15:25:56.254Z,492.58
2023-07-31T15:28:28.346Z,4.72
2023-07-31T15:30:57.672Z,1999.90
2023-07-31T15:33:35.601Z,1999.90
2023-07-31T15:36:08.202Z,1999.90
2023-07-31T15:38:38.005Z,1999.90
2023-07-31T15:41:09.132Z,1999.90
2023-07-31T15:43:42.889Z,1999.90
2023-07-31T15:46:14.202Z,1999.90
2023-07-31T15:48:44.541Z,959.05
2023-07-31T15:51:14.474Z,3.28
2023-07-31T15:53:43.136Z,9.05
2023-07-31T15:56:14.358Z,6.00
2023-07-31T15:58:44.867Z,7.53
2023-07-31T16:01:13.907Z,3.45
2023-07-31T16:03:54.528Z,1600.15
2023-07-31T16:06:23.462Z,1999.90
2023-07-31T16:08:55.706Z,1676.25
2023-07-31T16:11:24.304Z,1999.90
2023-07-31T16:13:53.294Z,1657.53
2023-07-31T16:16:22.408Z,349.83
2023-07-31T16:18:53.786Z,1295.93
2023-07-31T16:21:23.130Z,1012.67
2023-07-31T16:23:51.670Z,1999.90
2023-07-31T16:26:20.477Z,382.73
2023-07-31T16:28:49.393Z,1999.90
2023-07-31T16:31:18.997Z,63.03
2023-07-31T16:33:47.620Z,143.88
2023-07-31T16:36:19.234Z,4.43
2023-07-31T16:38:51.998Z,1497.18
2023-07-31T16:41:20.487Z,1999.90
2023-07-31T16:43:49.441Z,1999.90
2023-07-31T16:46:18.500Z,1037.20
2023-07-31T16:48:47.409Z,3.28
2023-07-31T16:51:19.105Z,929.67
2023-07-31T16:53:48.751Z,1999.90
2023-07-31T16:56:21.036Z,1999.90
2023-07-31T16:58:52.358Z,1999.90
2023-07-31T17:01:21.432Z,246.30
2023-07-31T17:03:52.544Z,451.48
2023-07-31T17:06:21.076Z,2.38
2023-07-31T17:08:50.086Z,633.85
2023-07-31T17:11:18.541Z,1208.30
2023-07-31T17:13:46.808Z,1.98
2023-07-31T17:16:20.990Z,73.43
2023-07-31T17:18:50.975Z,1.60
2023-07-31T17:21:21.089Z,2.33
2023-07-31T17:23:51.527Z,194.93
2023-07-31T17:26:22.825Z,3.40
2023-07-31T17:28:51.738Z,4.13
2023-07-31T17:31:20.409Z,2.10
2023-07-31T17:33:48.933Z,84.35
2023-07-31T17:36:17.079Z,340.20
2023-07-31T17:38:49.361Z,521.78
2023-07-31T17:41:19.960Z,1099.13
2023-07-31T17:43:48.350Z,5.95
2023-07-31T17:46:17.117Z,486.17
2023-07-31T17:48:48.959Z,5.47
2023-07-31T17:51:18.152Z,1538.97
2023-07-31T17:53:46.564Z,986.13
2023-07-31T17:56:15.143Z,1999.90
2023-07-31T17:58:46.266Z,1999.90
2023-07-31T18:01:17.552Z,1999.90
2023-07-31T18:03:50.138Z,1999.90
2023-07-31T18:06:20.890Z,1999.90
2023-07-31T18:08:50.463Z,1999.90
2023-07-31T18:11:21.268Z,1999.90
2023-07-31T18:13:51.331Z,1999.90
2023-07-31T18:16:24.660Z,1999.90
2023-07-31T18:18:53.781Z,1999.90
2023-07-31T18:21:22.578Z,1999.90
2023-07-31T18:23:52.420Z,1999.90
2023-07-31T18:26:22.034Z,1999.90
2023-07-31T18:28:56.258Z,1999.90
2023-07-31T18:31:25.712Z,1999.90
2023-07-31T18:33:54.139Z,1999.90
2023-07-31T18:36:23.544Z,1999.90
2023-07-31T18:38:52.242Z,1999.90
2023-07-31T18:41:20.575Z,1999.90
2023-07-31T18:43:48.921Z,797.03
2023-07-31T18:46:22.076Z,1999.90
2023-07-31T18:48:55.184Z,1999.90
2023-07-31T18:51:23.570Z,1999.90
2023-07-31T18:53:54.462Z,1999.90
2023-07-31T18:56:28.364Z,172.77
2023-07-31T18:58:56.759Z,1000.63
2023-07-31T19:01:27.603Z,1999.90
2023-07-31T19:03:56.352Z,1999.90
2023-07-31T19:06:24.843Z,1999.90
2023-07-31T19:08:55.784Z,8.70
2023-07-31T19:11:31.987Z,7.97
2023-07-31T19:14:01.914Z,1999.90
2023-07-31T19:16:34.245Z,254.07
2023-07-31T19:19:03.262Z,1999.90
2023-07-31T19:21:34.734Z,1999.90
2023-07-31T19:24:06.419Z,1999.90
2023-07-31T19:26:35.145Z,1999.90
2023-07-31T19:29:04.747Z,1095.80
2023-07-31T19:31:37.208Z,1999.90
2023-07-31T19:34:05.720Z,382.15
2023-07-31T19:39:09.413Z,3.13
2023-07-31T19:41:39.975Z,1.30
2023-07-31T19:44:08.998Z,163.30
2023-07-31T19:46:40.811Z,1999.90
2023-07-31T19:49:10.358Z,1294.80
2023-07-31T19:51:41.422Z,348.20
2023-07-31T19:54:10.497Z,35.45
2023-07-31T19:56:40.974Z,3.42
2023-07-31T19:59:15.352Z,0.60
2023-07-31T20:01:44.035Z,1.23
2023-07-31T20:04:12.536Z,0.93
2023-07-31T20:06:47.859Z,0.80
2023-07-31T20:09:16.386Z,0.88
2023-07-31T20:11:45.476Z,0.95
2023-07-31T20:14:16.247Z,4.72
2023-07-31T20:16:45.201Z,331.90
2023-07-31T20:19:13.641Z,1.00
2023-07-31T20:21:44.569Z,1.00
2023-07-31T20:24:15.568Z,3.13
2023-07-31T20:26:45.698Z,1.17
2023-07-31T20:29:14.005Z,2.25
2023-07-31T20:31:42.669Z,4.78
2023-07-31T20:34:13.690Z,1.40
2023-07-31T20:36:44.848Z,1.15
2023-07-31T20:39:15.624Z,2.30
2023-07-31T20:41:44.978Z,2.08
2023-07-31T20:44:13.510Z,0.85
2023-07-31T20:46:42.195Z,1.10
2023-07-31T20:49:13.053Z,0.80
2023-07-31T20:51:44.816Z,1.48
2023-07-31T20:54:14.110Z,1.35
2023-07-31T20:56:43.035Z,0.52
2023-07-31T20:59:15.530Z,2.58
2023-07-31T21:01:44.830Z,0.77
2023-07-31T21:04:18.301Z,0.82
2023-07-31T21:06:49.266Z,1.38
2023-07-31T21:09:17.965Z,0.60
2023-07-31T21:11:46.820Z,2.85
2023-07-31T21:14:17.707Z,0.60
2023-07-31T21:16:47.124Z,1.90
2023-07-31T21:19:19.010Z,1.48
2023-07-31T21:21:49.448Z,0.80
2023-07-31T21:24:17.868Z,4.13
2023-07-31T21:26:46.273Z,0.70
2023-07-31T21:29:15.313Z,0.43
2023-07-31T21:31:44.131Z,1.85
2023-07-31T21:34:13.049Z,3.53
2023-07-31T21:39:18.372Z,1.02
2023-07-31T21:41:48.083Z,1.70
2023-07-31T21:44:19.280Z,0.47
2023-07-31T21:46:47.863Z,0.70
2023-07-31T21:49:17.160Z,1.52
2023-07-31T21:51:46.182Z,3.25
2023-07-31T21:54:17.260Z,1.27
2023-07-31T21:56:46.248Z,5.22
2023-07-31T21:59:17.966Z,2.13
2023-07-31T22:01:48.545Z,2.70
2023-07-31T22:04:21.965Z,1.60
2023-07-31T22:06:50.442Z,0.73
2023-07-31T22:09:21.999Z,0.95
2023-07-31T22:11:50.601Z,2.88
2023-07-31T22:14:19.068Z,2.17
2023-07-31T22:16:48.295Z,2.50
2023-07-31T22:19:18.854Z,2.25
2023-07-31T22:21:47.849Z,0.70
2023-07-31T22:24:16.316Z,2.80
2023-07-31T22:26:45.939Z,3.97
2023-07-31T22:29:14.491Z,1.33
2023-07-31T22:31:43.815Z,2.50
2023-07-31T22:34:20.877Z,0.80
2023-07-31T22:39:18.406Z,1.70
2023-07-31T22:41:48.361Z,0.68
2023-07-31T22:44:17.528Z,1.00
2023-07-31T22:46:48.324Z,1.27
2023-07-31T22:49:16.985Z,5.57
2023-07-31T22:51:45.617Z,0.93
2023-07-31T22:54:14.952Z,0.85
2023-07-31T22:56:43.814Z,1.23
2023-07-31T22:59:13.568Z,0.70
2023-07-31T23:01:44.589Z,2.72
2023-07-31T23:04:15.683Z,0.40
2023-07-31T23:06:44.707Z,1.05
2023-07-31T23:09:13.096Z,0.65
2023-07-31T23:11:42.609Z,1.08
2023-07-31T23:14:13.329Z,0.68
2023-07-31T23:16:42.247Z,3.30
2023-07-31T23:19:15.864Z,3.00
2023-07-31T23:21:45.049Z,1.05
2023-07-31T23:24:13.380Z,1.17
2023-07-31T23:26:42.880Z,1.88
2023-07-31T23:29:14.194Z,1.15
2023-07-31T23:31:46.500Z,1.60
2023-07-31T23:34:15.048Z,1.67
2023-07-31T23:36:43.651Z,1.35
2023-07-31T23:39:11.954Z,1.17
2023-07-31T23:41:41.386Z,1.00
2023-07-31T23:44:10.314Z,1.45
2023-07-31T23:46:39.048Z,2.47
2023-07-31T23:49:07.610Z,4.57
2023-07-31T23:51:37.710Z,1.63
2023-07-31T23:54:07.775Z,1.10
2023-07-31T23:56:40.049Z,2.00
2023-07-31T23:59:12.919Z,7.10
